sensor_id;sensor_type;location;lat;lon;timestamp;P1;durP1;ratioP1;P2;durP2;ratioP2
54201;SDS011;40108;53.152;5.844;2023-12-29T00:01:58;37.90;;;5.65;;
54201;SDS011;40108;53.152;5.844;2023-12-29T00:04:27;35.70;;;5.80;;
54201;SDS011;40108;53.152;5.844;2023-12-29T00:06:53;27.92;;;4.60;;
54201;SDS011;40108;53.152;5.844;2023-12-29T00:09:18;40.97;;;5.32;;
54201;SDS011;40108;53.152;5.844;2023-12-29T00:11:50;33.00;;;5.43;;
54201;SDS011;40108;53.152;5.844;2023-12-29T00:14:16;45.15;;;6.20;;
54201;SDS011;40108;53.152;5.844;2023-12-29T00:16:42;34.53;;;4.57;;
54201;SDS011;40108;53.152;5.844;2023-12-29T00:19:09;38.65;;;5.35;;
54201;SDS011;40108;53.152;5.844;2023-12-29T00:21:38;41.05;;;6.20;;
54201;SDS011;40108;53.152;5.844;2023-12-29T00:24:04;33.90;;;5.18;;
54201;SDS011;40108;53.152;5.844;2023-12-29T00:26:30;34.75;;;4.88;;
54201;SDS011;40108;53.152;5.844;2023-12-29T00:28:56;37.85;;;5.55;;
54201;SDS011;40108;53.152;5.844;2023-12-29T00:31:22;34.53;;;5.45;;
54201;SDS011;40108;53.152;5.844;2023-12-29T00:33:48;28.23;;;4.90;;
54201;SDS011;40108;53.152;5.844;2023-12-29T00:36:17;35.15;;;6.10;;
54201;SDS011;40108;53.152;5.844;2023-12-29T00:38:43;38.63;;;5.47;;
54201;SDS011;40108;53.152;5.844;2023-12-29T00:41:09;34.90;;;5.55;;
54201;SDS011;40108;53.152;5.844;2023-12-29T00:43:35;45.72;;;6.45;;
54201;SDS011;40108;53.152;5.844;2023-12-29T00:46:01;37.22;;;5.40;;
54201;SDS011;40108;53.152;5.844;2023-12-29T00:48:33;32.65;;;5.68;;
54201;SDS011;40108;53.152;5.844;2023-12-29T00:51:03;40.20;;;5.30;;
54201;SDS011;40108;53.152;5.844;2023-12-29T00:53:29;32.67;;;5.38;;
54201;SDS011;40108;53.152;5.844;2023-12-29T00:55:57;30.52;;;4.55;;
54201;SDS011;40108;53.152;5.844;2023-12-29T00:58:23;39.88;;;5.72;;
54201;SDS011;40108;53.152;5.844;2023-12-29T01:00:48;35.20;;;6.45;;
54201;SDS011;40108;53.152;5.844;2023-12-29T01:03:14;33.38;;;4.68;;
54201;SDS011;40108;53.152;5.844;2023-12-29T01:05:40;36.15;;;5.65;;
54201;SDS011;40108;53.152;5.844;2023-12-29T01:08:06;44.47;;;5.47;;
54201;SDS011;40108;53.152;5.844;2023-12-29T01:10:31;38.10;;;5.32;;
54201;SDS011;40108;53.152;5.844;2023-12-29T01:12:57;34.67;;;4.53;;
54201;SDS011;40108;53.152;5.844;2023-12-29T01:15:23;33.88;;;4.57;;
54201;SDS011;40108;53.152;5.844;2023-12-29T01:17:48;37.03;;;6.20;;
54201;SDS011;40108;53.152;5.844;2023-12-29T01:20:14;39.03;;;5.93;;
54201;SDS011;40108;53.152;5.844;2023-12-29T01:22:40;41.88;;;5.68;;
54201;SDS011;40108;53.152;5.844;2023-12-29T01:25:06;42.47;;;5.57;;
54201;SDS011;40108;53.152;5.844;2023-12-29T01:27:32;44.70;;;5.72;;
54201;SDS011;40108;53.152;5.844;2023-12-29T01:29:57;34.67;;;4.35;;
54201;SDS011;40108;53.152;5.844;2023-12-29T01:32:25;36.70;;;5.40;;
54201;SDS011;40108;53.152;5.844;2023-12-29T01:34:51;33.45;;;4.88;;
54201;SDS011;40108;53.152;5.844;2023-12-29T01:37:18;27.48;;;3.90;;
54201;SDS011;40108;53.152;5.844;2023-12-29T01:39:43;20.70;;;3.95;;
54201;SDS011;40108;53.152;5.844;2023-12-29T01:42:09;22.52;;;3.03;;
54201;SDS011;40108;53.152;5.844;2023-12-29T01:44:36;23.88;;;3.97;;
54201;SDS011;40108;53.152;5.844;2023-12-29T01:47:02;26.75;;;3.75;;
54201;SDS011;40108;53.152;5.844;2023-12-29T01:49:31;25.42;;;3.08;;
54201;SDS011;40108;53.152;5.844;2023-12-29T01:51:59;17.02;;;2.90;;
54201;SDS011;40108;53.152;5.844;2023-12-29T01:54:27;19.02;;;3.33;;
54201;SDS011;40108;53.152;5.844;2023-12-29T01:56:56;20.15;;;3.15;;
54201;SDS011;40108;53.152;5.844;2023-12-29T01:59:24;21.27;;;3.65;;
54201;SDS011;40108;53.152;5.844;2023-12-29T02:01:51;18.95;;;2.58;;
54201;SDS011;40108;53.152;5.844;2023-12-29T02:04:18;26.35;;;3.90;;
54201;SDS011;40108;53.152;5.844;2023-12-29T02:06:44;20.58;;;3.30;;
54201;SDS011;40108;53.152;5.844;2023-12-29T02:09:11;26.15;;;3.60;;
54201;SDS011;40108;53.152;5.844;2023-12-29T02:11:37;24.10;;;3.50;;
54201;SDS011;40108;53.152;5.844;2023-12-29T02:14:06;29.98;;;3.92;;
54201;SDS011;40108;53.152;5.844;2023-12-29T02:19:25;24.38;;;3.20;;
54201;SDS011;40108;53.152;5.844;2023-12-29T02:22:04;24.58;;;4.50;;
54201;SDS011;40108;53.152;5.844;2023-12-29T02:24:31;23.27;;;3.85;;
54201;SDS011;40108;53.152;5.844;2023-12-29T02:30:00;32.17;;;5.43;;
54201;SDS011;40108;53.152;5.844;2023-12-29T02:32:34;26.90;;;4.47;;
54201;SDS011;40108;53.152;5.844;2023-12-29T02:35:03;30.75;;;4.72;;
54201;SDS011;40108;53.152;5.844;2023-12-29T02:37:32;36.53;;;5.25;;
54201;SDS011;40108;53.152;5.844;2023-12-29T02:40:01;41.65;;;5.78;;
54201;SDS011;40108;53.152;5.844;2023-12-29T02:42:27;55.30;;;6.10;;
54201;SDS011;40108;53.152;5.844;2023-12-29T02:44:52;40.88;;;6.20;;
54201;SDS011;40108;53.152;5.844;2023-12-29T02:47:18;45.40;;;7.00;;
54201;SDS011;40108;53.152;5.844;2023-12-29T02:49:46;39.58;;;6.35;;
54201;SDS011;40108;53.152;5.844;2023-12-29T02:52:12;51.22;;;7.45;;
54201;SDS011;40108;53.152;5.844;2023-12-29T02:54:38;48.95;;;6.47;;
54201;SDS011;40108;53.152;5.844;2023-12-29T02:57:03;41.75;;;7.03;;
54201;SDS011;40108;53.152;5.844;2023-12-29T02:59:29;45.58;;;7.30;;
54201;SDS011;40108;53.152;5.844;2023-12-29T03:01:55;47.60;;;7.20;;
54201;SDS011;40108;53.152;5.844;2023-12-29T03:04:20;47.75;;;7.15;;
54201;SDS011;40108;53.152;5.844;2023-12-29T03:06:46;43.38;;;6.53;;
54201;SDS011;40108;53.152;5.844;2023-12-29T03:09:12;49.25;;;6.43;;
54201;SDS011;40108;53.152;5.844;2023-12-29T03:11:40;51.50;;;6.75;;
54201;SDS011;40108;53.152;5.844;2023-12-29T03:14:05;51.42;;;7.90;;
54201;SDS011;40108;53.152;5.844;2023-12-29T03:16:31;52.97;;;7.63;;
54201;SDS011;40108;53.152;5.844;2023-12-29T03:18:57;41.38;;;6.18;;
54201;SDS011;40108;53.152;5.844;2023-12-29T03:21:22;38.38;;;5.63;;
54201;SDS011;40108;53.152;5.844;2023-12-29T03:23:48;48.97;;;6.07;;
54201;SDS011;40108;53.152;5.844;2023-12-29T03:26:14;48.92;;;5.95;;
54201;SDS011;40108;53.152;5.844;2023-12-29T03:28:39;42.58;;;5.43;;
54201;SDS011;40108;53.152;5.844;2023-12-29T03:31:05;43.97;;;6.28;;
54201;SDS011;40108;53.152;5.844;2023-12-29T03:33:31;38.50;;;5.53;;
54201;SDS011;40108;53.152;5.844;2023-12-29T03:35:57;38.45;;;5.15;;
54201;SDS011;40108;53.152;5.844;2023-12-29T03:38:23;37.33;;;5.35;;
54201;SDS011;40108;53.152;5.844;2023-12-29T03:40:48;35.72;;;5.72;;
54201;SDS011;40108;53.152;5.844;2023-12-29T03:43:14;30.85;;;4.57;;
54201;SDS011;40108;53.152;5.844;2023-12-29T03:45:40;35.80;;;4.50;;
54201;SDS011;40108;53.152;5.844;2023-12-29T03:48:05;29.55;;;4.57;;
54201;SDS011;40108;53.152;5.844;2023-12-29T03:50:32;34.95;;;5.13;;
54201;SDS011;40108;53.152;5.844;2023-12-29T03:52:58;40.13;;;5.80;;
54201;SDS011;40108;53.152;5.844;2023-12-29T03:55:24;36.75;;;4.40;;
54201;SDS011;40108;53.152;5.844;2023-12-29T03:57:49;44.97;;;5.78;;
54201;SDS011;40108;53.152;5.844;2023-12-29T04:00:15;34.58;;;4.53;;
54201;SDS011;40108;53.152;5.844;2023-12-29T04:02:42;32.92;;;4.32;;
54201;SDS011;40108;53.152;5.844;2023-12-29T04:05:08;39.22;;;5.13;;
54201;SDS011;40108;53.152;5.844;2023-12-29T04:07:35;21.50;;;4.32;;
54201;SDS011;40108;53.152;5.844;2023-12-29T04:10:01;34.13;;;4.70;;
54201;SDS011;40108;53.152;5.844;2023-12-29T04:12:26;37.00;;;4.97;;
54201;SDS011;40108;53.152;5.844;2023-12-29T04:14:52;31.80;;;5.18;;
54201;SDS011;40108;53.152;5.844;2023-12-29T04:17:18;31.17;;;5.55;;
54201;SDS011;40108;53.152;5.844;2023-12-29T04:19:43;38.03;;;5.00;;
54201;SDS011;40108;53.152;5.844;2023-12-29T04:22:09;30.02;;;4.75;;
54201;SDS011;40108;53.152;5.844;2023-12-29T04:24:37;41.90;;;5.20;;
54201;SDS011;40108;53.152;5.844;2023-12-29T04:27:03;37.65;;;5.63;;
54201;SDS011;40108;53.152;5.844;2023-12-29T04:29:29;34.38;;;5.05;;
54201;SDS011;40108;53.152;5.844;2023-12-29T04:31:54;29.98;;;4.75;;
54201;SDS011;40108;53.152;5.844;2023-12-29T04:34:20;34.47;;;5.25;;
54201;SDS011;40108;53.152;5.844;2023-12-29T04:36:46;32.15;;;4.43;;
54201;SDS011;40108;53.152;5.844;2023-12-29T04:39:11;28.52;;;4.63;;
54201;SDS011;40108;53.152;5.844;2023-12-29T04:41:37;33.53;;;5.05;;
54201;SDS011;40108;53.152;5.844;2023-12-29T04:44:03;34.63;;;5.28;;
54201;SDS011;40108;53.152;5.844;2023-12-29T04:46:28;32.45;;;5.38;;
54201;SDS011;40108;53.152;5.844;2023-12-29T04:48:54;32.20;;;5.57;;
54201;SDS011;40108;53.152;5.844;2023-12-29T04:51:20;34.58;;;4.95;;
54201;SDS011;40108;53.152;5.844;2023-12-29T04:53:45;35.42;;;4.60;;
54201;SDS011;40108;53.152;5.844;2023-12-29T04:56:11;28.25;;;4.53;;
54201;SDS011;40108;53.152;5.844;2023-12-29T04:58:39;34.65;;;5.55;;
54201;SDS011;40108;53.152;5.844;2023-12-29T05:01:05;33.10;;;5.28;;
54201;SDS011;40108;53.152;5.844;2023-12-29T05:03:30;30.42;;;5.10;;
54201;SDS011;40108;53.152;5.844;2023-12-29T05:05:56;35.70;;;4.80;;
54201;SDS011;40108;53.152;5.844;2023-12-29T05:08:22;29.10;;;4.57;;
54201;SDS011;40108;53.152;5.844;2023-12-29T05:10:47;42.20;;;5.00;;
54201;SDS011;40108;53.152;5.844;2023-12-29T05:13:13;40.47;;;5.40;;
54201;SDS011;40108;53.152;5.844;2023-12-29T05:15:39;32.78;;;5.07;;
54201;SDS011;40108;53.152;5.844;2023-12-29T05:18:04;35.78;;;5.25;;
54201;SDS011;40108;53.152;5.844;2023-12-29T05:20:30;42.83;;;6.75;;
54201;SDS011;40108;53.152;5.844;2023-12-29T05:22:56;29.15;;;4.88;;
54201;SDS011;40108;53.152;5.844;2023-12-29T05:25:22;38.33;;;5.53;;
54201;SDS011;40108;53.152;5.844;2023-12-29T05:27:49;34.85;;;5.20;;
54201;SDS011;40108;53.152;5.844;2023-12-29T05:30:15;38.42;;;5.35;;
54201;SDS011;40108;53.152;5.844;2023-12-29T05:32:41;38.30;;;5.47;;
54201;SDS011;40108;53.152;5.844;2023-12-29T05:35:07;34.80;;;5.10;;
54201;SDS011;40108;53.152;5.844;2023-12-29T05:37:33;45.22;;;5.68;;
54201;SDS011;40108;53.152;5.844;2023-12-29T05:39:58;42.10;;;5.82;;
54201;SDS011;40108;53.152;5.844;2023-12-29T05:42:24;34.88;;;5.25;;
54201;SDS011;40108;53.152;5.844;2023-12-29T05:44:50;39.85;;;5.72;;
54201;SDS011;40108;53.152;5.844;2023-12-29T05:47:17;46.47;;;5.90;;
54201;SDS011;40108;53.152;5.844;2023-12-29T05:49:43;35.92;;;5.05;;
54201;SDS011;40108;53.152;5.844;2023-12-29T05:52:09;37.40;;;5.78;;
54201;SDS011;40108;53.152;5.844;2023-12-29T05:54:34;33.85;;;4.60;;
54201;SDS011;40108;53.152;5.844;2023-12-29T05:57:00;35.72;;;5.53;;
54201;SDS011;40108;53.152;5.844;2023-12-29T05:59:26;37.95;;;5.10;;
54201;SDS011;40108;53.152;5.844;2023-12-29T06:01:52;40.13;;;5.97;;
54201;SDS011;40108;53.152;5.844;2023-12-29T06:04:18;38.47;;;6.32;;
54201;SDS011;40108;53.152;5.844;2023-12-29T06:06:43;36.83;;;5.40;;
54201;SDS011;40108;53.152;5.844;2023-12-29T06:09:10;36.90;;;5.07;;
54201;SDS011;40108;53.152;5.844;2023-12-29T06:11:36;41.80;;;6.28;;
54201;SDS011;40108;53.152;5.844;2023-12-29T06:14:02;33.17;;;5.07;;
54201;SDS011;40108;53.152;5.844;2023-12-29T06:16:28;39.67;;;4.97;;
54201;SDS011;40108;53.152;5.844;2023-12-29T06:18:57;31.55;;;4.25;;
54201;SDS011;40108;53.152;5.844;2023-12-29T06:21:23;36.33;;;5.75;;
54201;SDS011;40108;53.152;5.844;2023-12-29T06:23:49;33.85;;;4.55;;
54201;SDS011;40108;53.152;5.844;2023-12-29T06:26:15;40.53;;;5.57;;
54201;SDS011;40108;53.152;5.844;2023-12-29T06:28:42;33.45;;;4.88;;
54201;SDS011;40108;53.152;5.844;2023-12-29T06:31:08;34.13;;;4.97;;
54201;SDS011;40108;53.152;5.844;2023-12-29T06:33:33;36.05;;;5.10;;
54201;SDS011;40108;53.152;5.844;2023-12-29T06:35:59;38.08;;;4.90;;
54201;SDS011;40108;53.152;5.844;2023-12-29T06:38:25;42.60;;;6.10;;
54201;SDS011;40108;53.152;5.844;2023-12-29T06:40:50;38.35;;;5.60;;
54201;SDS011;40108;53.152;5.844;2023-12-29T06:43:16;39.30;;;5.28;;
54201;SDS011;40108;53.152;5.844;2023-12-29T06:45:42;50.47;;;5.85;;
54201;SDS011;40108;53.152;5.844;2023-12-29T06:48:07;37.35;;;5.57;;
54201;SDS011;40108;53.152;5.844;2023-12-29T06:50:33;41.47;;;5.38;;
54201;SDS011;40108;53.152;5.844;2023-12-29T06:52:59;39.90;;;6.10;;
54201;SDS011;40108;53.152;5.844;2023-12-29T06:55:25;41.45;;;5.57;;
54201;SDS011;40108;53.152;5.844;2023-12-29T06:57:51;40.90;;;5.45;;
54201;SDS011;40108;53.152;5.844;2023-12-29T07:00:16;35.47;;;5.80;;
54201;SDS011;40108;53.152;5.844;2023-12-29T07:02:42;38.13;;;4.80;;
54201;SDS011;40108;53.152;5.844;2023-12-29T07:05:08;40.17;;;5.57;;
54201;SDS011;40108;53.152;5.844;2023-12-29T07:07:34;31.08;;;5.10;;
54201;SDS011;40108;53.152;5.844;2023-12-29T07:10:01;38.53;;;4.65;;
54201;SDS011;40108;53.152;5.844;2023-12-29T07:12:28;34.42;;;5.30;;
54201;SDS011;40108;53.152;5.844;2023-12-29T07:14:54;40.97;;;6.05;;
54201;SDS011;40108;53.152;5.844;2023-12-29T07:17:20;40.05;;;5.07;;
54201;SDS011;40108;53.152;5.844;2023-12-29T07:19:46;38.13;;;5.22;;
54201;SDS011;40108;53.152;5.844;2023-12-29T07:22:11;32.50;;;5.18;;
54201;SDS011;40108;53.152;5.844;2023-12-29T07:24:37;37.17;;;5.43;;
54201;SDS011;40108;53.152;5.844;2023-12-29T07:27:04;33.70;;;5.53;;
54201;SDS011;40108;53.152;5.844;2023-12-29T07:29:30;38.90;;;5.55;;
54201;SDS011;40108;53.152;5.844;2023-12-29T07:31:56;34.58;;;5.40;;
54201;SDS011;40108;53.152;5.844;2023-12-29T07:34:22;31.73;;;5.80;;
54201;SDS011;40108;53.152;5.844;2023-12-29T07:36:47;38.05;;;5.68;;
54201;SDS011;40108;53.152;5.844;2023-12-29T07:39:13;41.28;;;5.00;;
54201;SDS011;40108;53.152;5.844;2023-12-29T07:41:42;34.45;;;5.38;;
54201;SDS011;40108;53.152;5.844;2023-12-29T07:44:10;38.42;;;6.05;;
54201;SDS011;40108;53.152;5.844;2023-12-29T07:46:37;40.85;;;5.68;;
54201;SDS011;40108;53.152;5.844;2023-12-29T07:49:04;40.75;;;5.72;;
54201;SDS011;40108;53.152;5.844;2023-12-29T07:51:30;42.88;;;5.70;;
54201;SDS011;40108;53.152;5.844;2023-12-29T07:53:56;33.60;;;5.10;;
54201;SDS011;40108;53.152;5.844;2023-12-29T07:56:22;36.70;;;5.07;;
54201;SDS011;40108;53.152;5.844;2023-12-29T07:58:48;34.63;;;5.28;;
54201;SDS011;40108;53.152;5.844;2023-12-29T08:01:13;27.98;;;3.92;;
54201;SDS011;40108;53.152;5.844;2023-12-29T08:03:39;30.63;;;4.43;;
54201;SDS011;40108;53.152;5.844;2023-12-29T08:06:05;31.17;;;4.65;;
54201;SDS011;40108;53.152;5.844;2023-12-29T08:08:31;36.58;;;5.15;;
54201;SDS011;40108;53.152;5.844;2023-12-29T08:10:56;31.02;;;5.10;;
54201;SDS011;40108;53.152;5.844;2023-12-29T08:13:22;31.00;;;4.80;;
54201;SDS011;40108;53.152;5.844;2023-12-29T08:15:48;37.83;;;5.25;;
54201;SDS011;40108;53.152;5.844;2023-12-29T08:18:14;38.72;;;5.07;;
54201;SDS011;40108;53.152;5.844;2023-12-29T08:20:39;43.17;;;5.85;;
54201;SDS011;40108;53.152;5.844;2023-12-29T08:23:05;37.83;;;5.00;;
54201;SDS011;40108;53.152;5.844;2023-12-29T08:25:31;32.13;;;4.43;;
54201;SDS011;40108;53.152;5.844;2023-12-29T08:27:56;30.27;;;5.10;;
54201;SDS011;40108;53.152;5.844;2023-12-29T08:30:22;31.33;;;5.07;;
54201;SDS011;40108;53.152;5.844;2023-12-29T08:32:48;33.55;;;4.55;;
54201;SDS011;40108;53.152;5.844;2023-12-29T08:35:13;25.83;;;4.93;;
54201;SDS011;40108;53.152;5.844;2023-12-29T08:37:39;32.47;;;4.57;;
54201;SDS011;40108;53.152;5.844;2023-12-29T08:40:05;33.67;;;4.35;;
54201;SDS011;40108;53.152;5.844;2023-12-29T08:42:31;38.60;;;4.38;;
54201;SDS011;40108;53.152;5.844;2023-12-29T08:44:58;29.58;;;5.45;;
54201;SDS011;40108;53.152;5.844;2023-12-29T08:47:24;29.20;;;3.83;;
54201;SDS011;40108;53.152;5.844;2023-12-29T08:49:50;26.83;;;3.58;;
54201;SDS011;40108;53.152;5.844;2023-12-29T08:52:16;29.38;;;4.25;;
54201;SDS011;40108;53.152;5.844;2023-12-29T08:54:42;34.45;;;4.50;;
54201;SDS011;40108;53.152;5.844;2023-12-29T08:57:07;30.52;;;4.18;;
54201;SDS011;40108;53.152;5.844;2023-12-29T08:59:33;32.80;;;4.25;;
54201;SDS011;40108;53.152;5.844;2023-12-29T09:01:59;34.10;;;4.47;;
54201;SDS011;40108;53.152;5.844;2023-12-29T09:04:25;35.65;;;4.30;;
54201;SDS011;40108;53.152;5.844;2023-12-29T09:06:51;41.20;;;5.93;;
54201;SDS011;40108;53.152;5.844;2023-12-29T09:09:17;32.65;;;5.30;;
54201;SDS011;40108;53.152;5.844;2023-12-29T09:11:43;33.58;;;4.93;;
54201;SDS011;40108;53.152;5.844;2023-12-29T09:14:10;32.47;;;4.50;;
54201;SDS011;40108;53.152;5.844;2023-12-29T09:16:35;33.92;;;5.13;;
54201;SDS011;40108;53.152;5.844;2023-12-29T09:19:01;37.03;;;5.03;;
54201;SDS011;40108;53.152;5.844;2023-12-29T09:21:27;46.28;;;5.13;;
54201;SDS011;40108;53.152;5.844;2023-12-29T09:23:53;35.33;;;4.47;;
54201;SDS011;40108;53.152;5.844;2023-12-29T09:26:19;38.90;;;4.38;;
54201;SDS011;40108;53.152;5.844;2023-12-29T09:28:45;34.20;;;4.50;;
54201;SDS011;40108;53.152;5.844;2023-12-29T09:31:11;27.30;;;4.35;;
54201;SDS011;40108;53.152;5.844;2023-12-29T09:33:37;32.50;;;4.45;;
54201;SDS011;40108;53.152;5.844;2023-12-29T09:36:03;30.35;;;4.32;;
54201;SDS011;40108;53.152;5.844;2023-12-29T09:38:29;37.00;;;5.78;;
54201;SDS011;40108;53.152;5.844;2023-12-29T09:40:57;37.40;;;5.20;;
54201;SDS011;40108;53.152;5.844;2023-12-29T09:43:25;31.70;;;4.28;;
54201;SDS011;40108;53.152;5.844;2023-12-29T09:45:51;33.35;;;4.75;;
54201;SDS011;40108;53.152;5.844;2023-12-29T09:48:17;25.38;;;3.80;;
54201;SDS011;40108;53.152;5.844;2023-12-29T09:50:45;31.42;;;4.45;;
54201;SDS011;40108;53.152;5.844;2023-12-29T09:53:14;29.33;;;4.05;;
54201;SDS011;40108;53.152;5.844;2023-12-29T09:55:42;33.20;;;5.22;;
54201;SDS011;40108;53.152;5.844;2023-12-29T09:58:08;28.80;;;4.25;;
54201;SDS011;40108;53.152;5.844;2023-12-29T10:00:37;31.25;;;4.22;;
54201;SDS011;40108;53.152;5.844;2023-12-29T10:03:05;24.27;;;4.35;;
54201;SDS011;40108;53.152;5.844;2023-12-29T10:05:31;26.77;;;3.58;;
54201;SDS011;40108;53.152;5.844;2023-12-29T10:07:56;22.20;;;4.10;;
54201;SDS011;40108;53.152;5.844;2023-12-29T10:10:26;25.25;;;4.15;;
54201;SDS011;40108;53.152;5.844;2023-12-29T10:12:53;30.15;;;4.15;;
54201;SDS011;40108;53.152;5.844;2023-12-29T10:15:21;23.05;;;4.07;;
54201;SDS011;40108;53.152;5.844;2023-12-29T10:18:05;26.48;;;3.80;;
54201;SDS011;40108;53.152;5.844;2023-12-29T10:20:49;21.35;;;3.25;;
54201;SDS011;40108;53.152;5.844;2023-12-29T10:23:40;24.83;;;3.63;;
54201;SDS011;40108;53.152;5.844;2023-12-29T10:26:10;25.75;;;4.47;;
54201;SDS011;40108;53.152;5.844;2023-12-29T10:28:36;21.42;;;3.10;;
54201;SDS011;40108;53.152;5.844;2023-12-29T10:31:04;21.48;;;3.28;;
54201;SDS011;40108;53.152;5.844;2023-12-29T10:33:30;21.40;;;3.13;;
54201;SDS011;40108;53.152;5.844;2023-12-29T10:36:01;24.33;;;3.75;;
54201;SDS011;40108;53.152;5.844;2023-12-29T10:38:28;27.48;;;3.10;;
54201;SDS011;40108;53.152;5.844;2023-12-29T10:41:09;18.52;;;3.08;;
54201;SDS011;40108;53.152;5.844;2023-12-29T10:43:46;20.95;;;3.30;;
54201;SDS011;40108;53.152;5.844;2023-12-29T10:46:20;18.15;;;2.55;;
54201;SDS011;40108;53.152;5.844;2023-12-29T10:48:46;19.40;;;3.00;;
54201;SDS011;40108;53.152;5.844;2023-12-29T10:51:11;16.58;;;2.78;;
54201;SDS011;40108;53.152;5.844;2023-12-29T10:53:37;17.90;;;2.65;;
54201;SDS011;40108;53.152;5.844;2023-12-29T10:56:03;23.48;;;3.50;;
54201;SDS011;40108;53.152;5.844;2023-12-29T10:58:29;23.48;;;3.38;;
54201;SDS011;40108;53.152;5.844;2023-12-29T11:00:57;19.30;;;2.92;;
54201;SDS011;40108;53.152;5.844;2023-12-29T11:03:25;18.35;;;3.08;;
54201;SDS011;40108;53.152;5.844;2023-12-29T11:05:51;23.52;;;3.58;;
54201;SDS011;40108;53.152;5.844;2023-12-29T11:08:25;26.35;;;3.83;;
54201;SDS011;40108;53.152;5.844;2023-12-29T11:10:51;17.23;;;2.97;;
54201;SDS011;40108;53.152;5.844;2023-12-29T11:13:19;25.83;;;3.08;;
54201;SDS011;40108;53.152;5.844;2023-12-29T11:15:45;21.25;;;3.42;;
54201;SDS011;40108;53.152;5.844;2023-12-29T11:18:15;11.88;;;2.15;;
54201;SDS011;40108;53.152;5.844;2023-12-29T11:20:42;16.67;;;2.70;;
54201;SDS011;40108;53.152;5.844;2023-12-29T11:23:09;21.02;;;2.90;;
54201;SDS011;40108;53.152;5.844;2023-12-29T11:25:39;17.05;;;2.85;;
54201;SDS011;40108;53.152;5.844;2023-12-29T11:28:08;22.02;;;3.95;;
54201;SDS011;40108;53.152;5.844;2023-12-29T11:30:37;17.63;;;2.97;;
54201;SDS011;40108;53.152;5.844;2023-12-29T11:35:55;17.95;;;3.00;;
54201;SDS011;40108;53.152;5.844;2023-12-29T11:38:43;20.48;;;3.22;;
54201;SDS011;40108;53.152;5.844;2023-12-29T11:41:21;19.65;;;4.00;;
54201;SDS011;40108;53.152;5.844;2023-12-29T11:44:07;15.10;;;2.92;;
54201;SDS011;40108;53.152;5.844;2023-12-29T11:46:40;28.27;;;3.50;;
54201;SDS011;40108;53.152;5.844;2023-12-29T11:49:08;22.52;;;3.30;;
54201;SDS011;40108;53.152;5.844;2023-12-29T11:54:32;25.08;;;3.15;;
54201;SDS011;40108;53.152;5.844;2023-12-29T11:56:58;20.98;;;3.70;;
54201;SDS011;40108;53.152;5.844;2023-12-29T11:59:24;20.48;;;2.95;;
54201;SDS011;40108;53.152;5.844;2023-12-29T12:01:56;22.20;;;3.10;;
54201;SDS011;40108;53.152;5.844;2023-12-29T12:04:34;20.88;;;3.30;;
54201;SDS011;40108;53.152;5.844;2023-12-29T12:07:07;18.92;;;2.70;;
54201;SDS011;40108;53.152;5.844;2023-12-29T12:09:35;21.05;;;3.30;;
54201;SDS011;40108;53.152;5.844;2023-12-29T12:12:04;18.48;;;3.42;;
54201;SDS011;40108;53.152;5.844;2023-12-29T12:17:12;26.48;;;3.78;;
54201;SDS011;40108;53.152;5.844;2023-12-29T12:19:52;18.77;;;3.28;;
54201;SDS011;40108;53.152;5.844;2023-12-29T12:22:21;19.45;;;2.78;;
54201;SDS011;40108;53.152;5.844;2023-12-29T12:24:50;20.65;;;3.42;;
54201;SDS011;40108;53.152;5.844;2023-12-29T12:27:24;16.63;;;3.08;;
54201;SDS011;40108;53.152;5.844;2023-12-29T12:30:00;18.77;;;3.35;;
54201;SDS011;40108;53.152;5.844;2023-12-29T12:32:26;23.02;;;3.60;;
54201;SDS011;40108;53.152;5.844;2023-12-29T12:34:53;19.42;;;3.05;;
54201;SDS011;40108;53.152;5.844;2023-12-29T12:37:22;27.02;;;3.55;;
54201;SDS011;40108;53.152;5.844;2023-12-29T12:39:49;25.40;;;4.40;;
54201;SDS011;40108;53.152;5.844;2023-12-29T12:42:17;30.13;;;4.68;;
54201;SDS011;40108;53.152;5.844;2023-12-29T12:45:06;25.38;;;4.28;;
54201;SDS011;40108;53.152;5.844;2023-12-29T12:47:33;21.85;;;3.10;;
54201;SDS011;40108;53.152;5.844;2023-12-29T12:50:07;30.25;;;3.72;;
54201;SDS011;40108;53.152;5.844;2023-12-29T12:52:35;22.98;;;4.43;;
54201;SDS011;40108;53.152;5.844;2023-12-29T12:55:05;21.45;;;3.17;;
54201;SDS011;40108;53.152;5.844;2023-12-29T12:57:32;23.77;;;3.80;;
54201;SDS011;40108;53.152;5.844;2023-12-29T12:59:59;30.88;;;4.00;;
54201;SDS011;40108;53.152;5.844;2023-12-29T13:02:26;25.85;;;4.32;;
54201;SDS011;40108;53.152;5.844;2023-12-29T13:04:52;19.63;;;3.40;;
54201;SDS011;40108;53.152;5.844;2023-12-29T13:07:19;21.95;;;3.13;;
54201;SDS011;40108;53.152;5.844;2023-12-29T13:09:45;26.38;;;3.42;;
54201;SDS011;40108;53.152;5.844;2023-12-29T13:12:13;18.60;;;3.88;;
54201;SDS011;40108;53.152;5.844;2023-12-29T13:14:41;21.25;;;2.95;;
54201;SDS011;40108;53.152;5.844;2023-12-29T13:17:14;32.30;;;11.55;;
54201;SDS011;40108;53.152;5.844;2023-12-29T13:19:42;19.37;;;2.87;;
54201;SDS011;40108;53.152;5.844;2023-12-29T13:22:10;29.85;;;5.22;;
54201;SDS011;40108;53.152;5.844;2023-12-29T13:24:46;21.95;;;4.78;;
54201;SDS011;40108;53.152;5.844;2023-12-29T13:27:12;28.60;;;7.65;;
54201;SDS011;40108;53.152;5.844;2023-12-29T13:29:38;23.73;;;3.22;;
54201;SDS011;40108;53.152;5.844;2023-12-29T13:40:00;25.90;;;4.45;;
54201;SDS011;40108;53.152;5.844;2023-12-29T13:42:36;23.00;;;3.67;;
54201;SDS011;40108;53.152;5.844;2023-12-29T13:45:05;28.40;;;7.80;;
54201;SDS011;40108;53.152;5.844;2023-12-29T13:47:34;46.92;;;27.40;;
54201;SDS011;40108;53.152;5.844;2023-12-29T13:50:02;27.88;;;6.65;;
54201;SDS011;40108;53.152;5.844;2023-12-29T13:52:28;23.75;;;3.38;;
54201;SDS011;40108;53.152;5.844;2023-12-29T13:54:54;28.77;;;3.88;;
54201;SDS011;40108;53.152;5.844;2023-12-29T13:57:29;28.05;;;5.05;;
54201;SDS011;40108;53.152;5.844;2023-12-29T13:59:56;19.13;;;4.53;;
54201;SDS011;40108;53.152;5.844;2023-12-29T14:02:31;23.67;;;5.55;;
54201;SDS011;40108;53.152;5.844;2023-12-29T14:07:52;30.65;;;9.20;;
54201;SDS011;40108;53.152;5.844;2023-12-29T14:10:28;20.90;;;4.35;;
54201;SDS011;40108;53.152;5.844;2023-12-29T14:15:33;29.50;;;8.38;;
54201;SDS011;40108;53.152;5.844;2023-12-29T14:18:04;25.85;;;7.60;;
54201;SDS011;40108;53.152;5.844;2023-12-29T14:20:38;19.85;;;3.05;;
54201;SDS011;40108;53.152;5.844;2023-12-29T14:23:05;19.55;;;4.70;;
54201;SDS011;40108;53.152;5.844;2023-12-29T14:25:35;27.10;;;6.38;;
54201;SDS011;40108;53.152;5.844;2023-12-29T14:28:23;19.65;;;3.35;;
54201;SDS011;40108;53.152;5.844;2023-12-29T14:30:48;26.40;;;3.67;;
54201;SDS011;40108;53.152;5.844;2023-12-29T14:33:14;27.45;;;3.38;;
54201;SDS011;40108;53.152;5.844;2023-12-29T14:35:39;20.58;;;3.55;;
54201;SDS011;40108;53.152;5.844;2023-12-29T14:38:05;19.00;;;2.85;;
54201;SDS011;40108;53.152;5.844;2023-12-29T14:40:31;18.27;;;2.80;;
54201;SDS011;40108;53.152;5.844;2023-12-29T14:43:00;20.75;;;3.45;;
54201;SDS011;40108;53.152;5.844;2023-12-29T14:45:26;23.23;;;4.10;;
54201;SDS011;40108;53.152;5.844;2023-12-29T14:47:55;21.30;;;3.08;;
54201;SDS011;40108;53.152;5.844;2023-12-29T14:50:22;24.60;;;2.83;;
54201;SDS011;40108;53.152;5.844;2023-12-29T14:52:48;25.38;;;3.17;;
54201;SDS011;40108;53.152;5.844;2023-12-29T14:55:13;23.00;;;3.25;;
54201;SDS011;40108;53.152;5.844;2023-12-29T14:57:39;16.77;;;2.53;;
54201;SDS011;40108;53.152;5.844;2023-12-29T15:00:05;19.23;;;2.65;;
54201;SDS011;40108;53.152;5.844;2023-12-29T15:02:31;22.77;;;2.75;;